sensor_id;sensor_type;location;lat;lon;timestamp;P1;durP1;ratioP1;P2;durP2;ratioP2
73264;SDS011;61493;51.008;14.088;2022-12-07T00:01:26;20.27;;;9.30;;
73264;SDS011;61493;51.008;14.088;2022-12-07T00:03:54;25.93;;;9.60;;
73264;SDS011;61493;51.008;14.088;2022-12-07T00:06:25;21.53;;;9.43;;
73264;SDS011;61493;51.008;14.088;2022-12-07T00:08:51;24.83;;;11.20;;
73264;SDS011;61493;51.008;14.088;2022-12-07T00:11:17;26.17;;;10.70;;
73264;SDS011;61493;51.008;14.088;2022-12-07T00:13:44;30.53;;;11.50;;
73264;SDS011;61493;51.008;14.088;2022-12-07T00:16:11;28.30;;;11.80;;
73264;SDS011;61493;51.008;14.088;2022-12-07T00:18:41;25.63;;;11.07;;
73264;SDS011;61493;51.008;14.088;2022-12-07T00:21:09;24.53;;;11.87;;
73264;SDS011;61493;51.008;14.088;2022-12-07T00:23:36;25.37;;;11.20;;
73264;SDS011;61493;51.008;14.088;2022-12-07T00:26:03;23.90;;;11.00;;
73264;SDS011;61493;51.008;14.088;2022-12-07T00:28:32;20.77;;;10.00;;
73264;SDS011;61493;51.008;14.088;2022-12-07T00:31:02;22.77;;;10.57;;
73264;SDS011;61493;51.008;14.088;2022-12-07T00:33:33;23.77;;;10.27;;
73264;SDS011;61493;51.008;14.088;2022-12-07T00:35:59;20.43;;;8.57;;
73264;SDS011;61493;51.008;14.088;2022-12-07T00:38:27;21.03;;;8.90;;
73264;SDS011;61493;51.008;14.088;2022-12-07T00:41:13;21.53;;;8.97;;
73264;SDS011;61493;51.008;14.088;2022-12-07T00:43:44;20.80;;;9.40;;
73264;SDS011;61493;51.008;14.088;2022-12-07T00:46:10;17.63;;;8.10;;
73264;SDS011;61493;51.008;14.088;2022-12-07T00:48:36;20.60;;;7.63;;
73264;SDS011;61493;51.008;14.088;2022-12-07T00:51:02;21.73;;;10.30;;
73264;SDS011;61493;51.008;14.088;2022-12-07T00:53:28;19.63;;;8.93;;
73264;SDS011;61493;51.008;14.088;2022-12-07T00:55:54;20.40;;;8.80;;
73264;SDS011;61493;51.008;14.088;2022-12-07T00:58:21;16.60;;;7.97;;
73264;SDS011;61493;51.008;14.088;2022-12-07T01:00:47;16.87;;;8.27;;
73264;SDS011;61493;51.008;14.088;2022-12-07T01:03:13;18.50;;;8.47;;
73264;SDS011;61493;51.008;14.088;2022-12-07T01:05:39;18.87;;;8.63;;
73264;SDS011;61493;51.008;14.088;2022-12-07T01:08:05;20.13;;;8.73;;
73264;SDS011;61493;51.008;14.088;2022-12-07T01:10:31;17.13;;;8.90;;
73264;SDS011;61493;51.008;14.088;2022-12-07T01:12:57;18.00;;;9.27;;
73264;SDS011;61493;51.008;14.088;2022-12-07T01:15:24;15.90;;;8.53;;
73264;SDS011;61493;51.008;14.088;2022-12-07T01:17:50;19.97;;;8.50;;
73264;SDS011;61493;51.008;14.088;2022-12-07T01:20:15;20.80;;;9.03;;
73264;SDS011;61493;51.008;14.088;2022-12-07T01:22:42;16.93;;;8.37;;
73264;SDS011;61493;51.008;14.088;2022-12-07T01:25:08;15.33;;;7.87;;
73264;SDS011;61493;51.008;14.088;2022-12-07T01:27:35;22.93;;;10.77;;
73264;SDS011;61493;51.008;14.088;2022-12-07T01:30:00;19.40;;;9.17;;
73264;SDS011;61493;51.008;14.088;2022-12-07T01:32:27;19.53;;;8.83;;
73264;SDS011;61493;51.008;14.088;2022-12-07T01:34:52;16.73;;;7.50;;
73264;SDS011;61493;51.008;14.088;2022-12-07T01:37:18;17.07;;;8.73;;
73264;SDS011;61493;51.008;14.088;2022-12-07T01:39:43;20.80;;;8.90;;
73264;SDS011;61493;51.008;14.088;2022-12-07T01:42:09;14.70;;;6.93;;
73264;SDS011;61493;51.008;14.088;2022-12-07T01:47:42;17.67;;;8.27;;
73264;SDS011;61493;51.008;14.088;2022-12-07T01:50:09;21.33;;;8.63;;
73264;SDS011;61493;51.008;14.088;2022-12-07T01:52:35;13.43;;;7.97;;
73264;SDS011;61493;51.008;14.088;2022-12-07T01:55:07;16.20;;;7.83;;
73264;SDS011;61493;51.008;14.088;2022-12-07T01:57:37;19.02;;;9.30;;
73264;SDS011;61493;51.008;14.088;2022-12-07T02:00:06;24.57;;;10.80;;
73264;SDS011;61493;51.008;14.088;2022-12-07T02:02:34;19.77;;;9.60;;
73264;SDS011;61493;51.008;14.088;2022-12-07T02:05:07;19.77;;;9.50;;
73264;SDS011;61493;51.008;14.088;2022-12-07T02:07:34;20.93;;;10.20;;
73264;SDS011;61493;51.008;14.088;2022-12-07T02:15:28;22.40;;;9.30;;
73264;SDS011;61493;51.008;14.088;2022-12-07T02:18:07;19.03;;;8.47;;
73264;SDS011;61493;51.008;14.088;2022-12-07T02:28:55;17.10;;;7.67;;
73264;SDS011;61493;51.008;14.088;2022-12-07T02:31:35;19.03;;;8.97;;
73264;SDS011;61493;51.008;14.088;2022-12-07T02:34:09;20.50;;;9.93;;
73264;SDS011;61493;51.008;14.088;2022-12-07T02:36:40;19.47;;;9.10;;
73264;SDS011;61493;51.008;14.088;2022-12-07T02:39:44;20.20;;;9.73;;
73264;SDS011;61493;51.008;14.088;2022-12-07T02:42:09;20.70;;;8.87;;
73264;SDS011;61493;51.008;14.088;2022-12-07T02:44:40;14.00;;;7.50;;
73264;SDS011;61493;51.008;14.088;2022-12-07T02:47:07;18.97;;;8.63;;
73264;SDS011;61493;51.008;14.088;2022-12-07T02:49:38;19.43;;;8.00;;
73264;SDS011;61493;51.008;14.088;2022-12-07T02:52:07;17.10;;;8.70;;
73264;SDS011;61493;51.008;14.088;2022-12-07T02:54:33;16.83;;;7.43;;
73264;SDS011;61493;51.008;14.088;2022-12-07T02:59:40;19.60;;;7.23;;
73264;SDS011;61493;51.008;14.088;2022-12-07T03:08:13;14.53;;;6.90;;
73264;SDS011;61493;51.008;14.088;2022-12-07T03:18:46;15.82;;;7.57;;
73264;SDS011;61493;51.008;14.088;2022-12-07T03:21:17;15.47;;;7.17;;
73264;SDS011;61493;51.008;14.088;2022-12-07T03:23:49;13.47;;;6.67;;
73264;SDS011;61493;51.008;14.088;2022-12-07T03:26:18;16.47;;;7.63;;
73264;SDS011;61493;51.008;14.088;2022-12-07T03:28:49;14.50;;;8.23;;
73264;SDS011;61493;51.008;14.088;2022-12-07T03:31:29;15.07;;;7.07;;
73264;SDS011;61493;51.008;14.088;2022-12-07T03:39:06;15.20;;;7.67;;
73264;SDS011;61493;51.008;14.088;2022-12-07T03:41:42;15.07;;;7.72;;
73264;SDS011;61493;51.008;14.088;2022-12-07T03:44:08;13.80;;;6.50;;
73264;SDS011;61493;51.008;14.088;2022-12-07T03:55:06;14.60;;;8.03;;
73264;SDS011;61493;51.008;14.088;2022-12-07T03:57:33;16.37;;;7.07;;
73264;SDS011;61493;51.008;14.088;2022-12-07T04:00:00;14.33;;;6.43;;
73264;SDS011;61493;51.008;14.088;2022-12-07T04:02:28;15.40;;;7.47;;
73264;SDS011;61493;51.008;14.088;2022-12-07T04:04:54;19.73;;;7.57;;
73264;SDS011;61493;51.008;14.088;2022-12-07T04:07:21;17.20;;;7.33;;
73264;SDS011;61493;51.008;14.088;2022-12-07T04:09:46;19.20;;;8.63;;
73264;SDS011;61493;51.008;14.088;2022-12-07T04:12:11;14.03;;;7.10;;
73264;SDS011;61493;51.008;14.088;2022-12-07T04:14:37;13.57;;;6.70;;
73264;SDS011;61493;51.008;14.088;2022-12-07T04:17:02;13.67;;;6.63;;
73264;SDS011;61493;51.008;14.088;2022-12-07T04:19:29;14.23;;;7.00;;
73264;SDS011;61493;51.008;14.088;2022-12-07T04:21:57;16.33;;;7.43;;
73264;SDS011;61493;51.008;14.088;2022-12-07T04:24:24;15.23;;;7.63;;
73264;SDS011;61493;51.008;14.088;2022-12-07T04:26:50;16.30;;;7.23;;
73264;SDS011;61493;51.008;14.088;2022-12-07T04:29:16;16.03;;;7.00;;
73264;SDS011;61493;51.008;14.088;2022-12-07T04:31:42;19.67;;;7.73;;
73264;SDS011;61493;51.008;14.088;2022-12-07T04:34:07;19.43;;;7.60;;
73264;SDS011;61493;51.008;14.088;2022-12-07T04:36:33;11.67;;;6.90;;
73264;SDS011;61493;51.008;14.088;2022-12-07T04:38:59;18.03;;;7.90;;
73264;SDS011;61493;51.008;14.088;2022-12-07T04:41:26;19.50;;;9.33;;
73264;SDS011;61493;51.008;14.088;2022-12-07T04:43:54;15.20;;;7.77;;
73264;SDS011;61493;51.008;14.088;2022-12-07T04:46:25;16.17;;;6.63;;
73264;SDS011;61493;51.008;14.088;2022-12-07T04:48:52;16.80;;;8.03;;
73264;SDS011;61493;51.008;14.088;2022-12-07T04:51:19;20.97;;;8.63;;
73264;SDS011;61493;51.008;14.088;2022-12-07T04:53:47;15.03;;;8.33;;
73264;SDS011;61493;51.008;14.088;2022-12-07T04:56:13;15.90;;;8.10;;
73264;SDS011;61493;51.008;14.088;2022-12-07T04:58:39;19.07;;;7.97;;
73264;SDS011;61493;51.008;14.088;2022-12-07T05:01:05;15.70;;;7.33;;
73264;SDS011;61493;51.008;14.088;2022-12-07T05:03:30;16.37;;;7.97;;
73264;SDS011;61493;51.008;14.088;2022-12-07T05:05:56;16.03;;;8.07;;
73264;SDS011;61493;51.008;14.088;2022-12-07T05:08:21;15.83;;;7.57;;
73264;SDS011;61493;51.008;14.088;2022-12-07T05:10:48;20.67;;;7.87;;
73264;SDS011;61493;51.008;14.088;2022-12-07T05:13:13;12.60;;;6.87;;
73264;SDS011;61493;51.008;14.088;2022-12-07T05:15:39;17.47;;;7.13;;
73264;SDS011;61493;51.008;14.088;2022-12-07T05:18:04;17.03;;;6.97;;
73264;SDS011;61493;51.008;14.088;2022-12-07T05:20:30;14.27;;;6.40;;
73264;SDS011;61493;51.008;14.088;2022-12-07T05:22:55;15.30;;;7.67;;
73264;SDS011;61493;51.008;14.088;2022-12-07T05:25:24;17.87;;;7.40;;
73264;SDS011;61493;51.008;14.088;2022-12-07T05:27:50;18.53;;;8.57;;
73264;SDS011;61493;51.008;14.088;2022-12-07T05:30:16;15.40;;;7.37;;
73264;SDS011;61493;51.008;14.088;2022-12-07T05:32:41;18.30;;;8.10;;
73264;SDS011;61493;51.008;14.088;2022-12-07T05:35:07;15.43;;;7.47;;
73264;SDS011;61493;51.008;14.088;2022-12-07T05:37:32;12.00;;;6.37;;
73264;SDS011;61493;51.008;14.088;2022-12-07T05:39:58;20.60;;;7.67;;
73264;SDS011;61493;51.008;14.088;2022-12-07T05:42:23;16.67;;;7.17;;
73264;SDS011;61493;51.008;14.088;2022-12-07T05:44:49;13.90;;;6.20;;
73264;SDS011;61493;51.008;14.088;2022-12-07T05:47:14;15.33;;;6.67;;
73264;SDS011;61493;51.008;14.088;2022-12-07T05:49:40;17.73;;;7.00;;
73264;SDS011;61493;51.008;14.088;2022-12-07T05:52:06;15.37;;;7.30;;
73264;SDS011;61493;51.008;14.088;2022-12-07T05:54:32;16.90;;;6.93;;
73264;SDS011;61493;51.008;14.088;2022-12-07T05:56:58;15.60;;;7.70;;
73264;SDS011;61493;51.008;14.088;2022-12-07T05:59:23;16.97;;;7.70;;
73264;SDS011;61493;51.008;14.088;2022-12-07T06:01:49;16.10;;;7.27;;
73264;SDS011;61493;51.008;14.088;2022-12-07T06:04:27;17.23;;;6.13;;
73264;SDS011;61493;51.008;14.088;2022-12-07T06:06:54;16.20;;;6.83;;
73264;SDS011;61493;51.008;14.088;2022-12-07T06:09:20;13.73;;;7.13;;
73264;SDS011;61493;51.008;14.088;2022-12-07T06:11:47;16.63;;;7.03;;
73264;SDS011;61493;51.008;14.088;2022-12-07T06:14:31;14.17;;;5.70;;
73264;SDS011;61493;51.008;14.088;2022-12-07T06:16:57;15.73;;;6.00;;
73264;SDS011;61493;51.008;14.088;2022-12-07T06:19:23;14.67;;;5.83;;
73264;SDS011;61493;51.008;14.088;2022-12-07T06:21:48;13.03;;;7.27;;
73264;SDS011;61493;51.008;14.088;2022-12-07T06:24:14;10.70;;;4.57;;
73264;SDS011;61493;51.008;14.088;2022-12-07T06:26:41;10.90;;;5.57;;
73264;SDS011;61493;51.008;14.088;2022-12-07T06:29:07;9.20;;;5.20;;
73264;SDS011;61493;51.008;14.088;2022-12-07T06:31:33;11.40;;;5.27;;
73264;SDS011;61493;51.008;14.088;2022-12-07T06:33:59;10.23;;;4.90;;
73264;SDS011;61493;51.008;14.088;2022-12-07T06:36:25;7.87;;;5.13;;
73264;SDS011;61493;51.008;14.088;2022-12-07T06:38:51;8.73;;;4.60;;
73264;SDS011;61493;51.008;14.088;2022-12-07T06:41:16;10.50;;;4.57;;
73264;SDS011;61493;51.008;14.088;2022-12-07T06:43:42;9.40;;;4.57;;
73264;SDS011;61493;51.008;14.088;2022-12-07T06:46:07;7.70;;;4.10;;
73264;SDS011;61493;51.008;14.088;2022-12-07T06:48:32;8.27;;;5.10;;
73264;SDS011;61493;51.008;14.088;2022-12-07T06:50:58;8.03;;;3.60;;
73264;SDS011;61493;51.008;14.088;2022-12-07T06:53:23;10.73;;;4.10;;
73264;SDS011;61493;51.008;14.088;2022-12-07T06:55:48;11.43;;;7.00;;
73264;SDS011;61493;51.008;14.088;2022-12-07T06:58:14;12.63;;;5.93;;
73264;SDS011;61493;51.008;14.088;2022-12-07T07:00:40;46.17;;;19.90;;
73264;SDS011;61493;51.008;14.088;2022-12-07T07:03:05;82.03;;;35.47;;
73264;SDS011;61493;51.008;14.088;2022-12-07T07:05:31;75.07;;;34.17;;
73264;SDS011;61493;51.008;14.088;2022-12-07T07:07:59;13.93;;;6.83;;
73264;SDS011;61493;51.008;14.088;2022-12-07T07:10:24;13.57;;;6.27;;
73264;SDS011;61493;51.008;14.088;2022-12-07T07:12:50;13.27;;;6.20;;
73264;SDS011;61493;51.008;14.088;2022-12-07T07:15:15;11.23;;;5.40;;
73264;SDS011;61493;51.008;14.088;2022-12-07T07:17:40;6.43;;;3.90;;
73264;SDS011;61493;51.008;14.088;2022-12-07T07:20:06;8.27;;;4.87;;
73264;SDS011;61493;51.008;14.088;2022-12-07T07:22:31;8.07;;;3.77;;
73264;SDS011;61493;51.008;14.088;2022-12-07T07:24:56;7.80;;;4.80;;
73264;SDS011;61493;51.008;14.088;2022-12-07T07:27:22;8.93;;;4.33;;
73264;SDS011;61493;51.008;14.088;2022-12-07T07:29:47;6.50;;;3.23;;
73264;SDS011;61493;51.008;14.088;2022-12-07T07:32:12;10.73;;;4.97;;
73264;SDS011;61493;51.008;14.088;2022-12-07T07:34:38;9.30;;;4.87;;
73264;SDS011;61493;51.008;14.088;2022-12-07T07:37:04;8.87;;;4.57;;
73264;SDS011;61493;51.008;14.088;2022-12-07T07:39:29;9.57;;;5.10;;
73264;SDS011;61493;51.008;14.088;2022-12-07T07:41:55;7.93;;;4.10;;
73264;SDS011;61493;51.008;14.088;2022-12-07T07:44:20;8.83;;;3.87;;
73264;SDS011;61493;51.008;14.088;2022-12-07T07:46:45;9.73;;;4.50;;
73264;SDS011;61493;51.008;14.088;2022-12-07T07:49:11;9.50;;;5.80;;
73264;SDS011;61493;51.008;14.088;2022-12-07T07:51:36;9.90;;;5.47;;
73264;SDS011;61493;51.008;14.088;2022-12-07T07:54:02;9.07;;;4.23;;
73264;SDS011;61493;51.008;14.088;2022-12-07T07:56:28;8.93;;;4.30;;
73264;SDS011;61493;51.008;14.088;2022-12-07T07:58:53;8.63;;;5.03;;
73264;SDS011;61493;51.008;14.088;2022-12-07T08:01:19;9.30;;;4.67;;
73264;SDS011;61493;51.008;14.088;2022-12-07T08:03:44;8.50;;;3.97;;
73264;SDS011;61493;51.008;14.088;2022-12-07T08:06:11;10.23;;;4.43;;
73264;SDS011;61493;51.008;14.088;2022-12-07T08:08:36;10.53;;;5.07;;
73264;SDS011;61493;51.008;14.088;2022-12-07T08:11:04;13.10;;;5.07;;
73264;SDS011;61493;51.008;14.088;2022-12-07T08:13:30;10.33;;;5.47;;
73264;SDS011;61493;51.008;14.088;2022-12-07T08:15:55;9.83;;;4.87;;
73264;SDS011;61493;51.008;14.088;2022-12-07T08:18:21;10.37;;;5.13;;
73264;SDS011;61493;51.008;14.088;2022-12-07T08:20:46;8.23;;;5.23;;
73264;SDS011;61493;51.008;14.088;2022-12-07T08:23:12;8.40;;;4.67;;
73264;SDS011;61493;51.008;14.088;2022-12-07T08:25:37;8.27;;;4.23;;
73264;SDS011;61493;51.008;14.088;2022-12-07T08:28:03;8.57;;;4.47;;
73264;SDS011;61493;51.008;14.088;2022-12-07T08:30:29;9.60;;;5.27;;
73264;SDS011;61493;51.008;14.088;2022-12-07T08:32:55;7.97;;;4.13;;
73264;SDS011;61493;51.008;14.088;2022-12-07T08:35:20;8.47;;;4.77;;
73264;SDS011;61493;51.008;14.088;2022-12-07T08:37:46;8.47;;;4.83;;
73264;SDS011;61493;51.008;14.088;2022-12-07T08:40:12;9.50;;;5.60;;
73264;SDS011;61493;51.008;14.088;2022-12-07T08:42:47;12.07;;;6.67;;
73264;SDS011;61493;51.008;14.088;2022-12-07T08:45:14;13.32;;;5.57;;
73264;SDS011;61493;51.008;14.088;2022-12-07T08:47:43;12.13;;;7.37;;
73264;SDS011;61493;51.008;14.088;2022-12-07T08:50:13;12.23;;;6.80;;
73264;SDS011;61493;51.008;14.088;2022-12-07T08:52:39;21.87;;;9.97;;
73264;SDS011;61493;51.008;14.088;2022-12-07T08:55:07;14.90;;;7.53;;
73264;SDS011;61493;51.008;14.088;2022-12-07T08:57:35;12.53;;;5.90;;
73264;SDS011;61493;51.008;14.088;2022-12-07T09:00:02;12.17;;;6.23;;
73264;SDS011;61493;51.008;14.088;2022-12-07T09:02:29;17.77;;;9.97;;
73264;SDS011;61493;51.008;14.088;2022-12-07T09:04:55;17.53;;;7.97;;
73264;SDS011;61493;51.008;14.088;2022-12-07T09:07:21;17.00;;;8.57;;
73264;SDS011;61493;51.008;14.088;2022-12-07T09:09:46;12.23;;;6.63;;
73264;SDS011;61493;51.008;14.088;2022-12-07T09:12:11;20.63;;;10.20;;
73264;SDS011;61493;51.008;14.088;2022-12-07T09:14:38;12.60;;;7.43;;
73264;SDS011;61493;51.008;14.088;2022-12-07T09:17:07;15.90;;;6.83;;
73264;SDS011;61493;51.008;14.088;2022-12-07T09:19:33;14.97;;;8.17;;
73264;SDS011;61493;51.008;14.088;2022-12-07T09:21:58;14.30;;;8.27;;
73264;SDS011;61493;51.008;14.088;2022-12-07T09:24:24;20.30;;;9.43;;
73264;SDS011;61493;51.008;14.088;2022-12-07T09:26:49;15.17;;;7.87;;
73264;SDS011;61493;51.008;14.088;2022-12-07T09:29:14;15.43;;;7.50;;
73264;SDS011;61493;51.008;14.088;2022-12-07T09:31:40;12.00;;;6.37;;
73264;SDS011;61493;51.008;14.088;2022-12-07T09:34:05;12.10;;;6.43;;
73264;SDS011;61493;51.008;14.088;2022-12-07T09:36:31;13.00;;;7.03;;
73264;SDS011;61493;51.008;14.088;2022-12-07T09:38:56;11.60;;;5.83;;
73264;SDS011;61493;51.008;14.088;2022-12-07T09:41:22;10.73;;;6.63;;
73264;SDS011;61493;51.008;14.088;2022-12-07T09:43:49;10.50;;;6.63;;
73264;SDS011;61493;51.008;14.088;2022-12-07T09:46:16;11.20;;;5.23;;
73264;SDS011;61493;51.008;14.088;2022-12-07T09:48:44;13.53;;;6.27;;
73264;SDS011;61493;51.008;14.088;2022-12-07T09:51:18;12.97;;;6.20;;
73264;SDS011;61493;51.008;14.088;2022-12-07T09:53:45;11.43;;;6.07;;
73264;SDS011;61493;51.008;14.088;2022-12-07T09:56:13;10.07;;;5.17;;
73264;SDS011;61493;51.008;14.088;2022-12-07T09:58:39;13.77;;;6.20;;
73264;SDS011;61493;51.008;14.088;2022-12-07T10:03:33;11.50;;;5.40;;
73264;SDS011;61493;51.008;14.088;2022-12-07T10:06:00;11.00;;;5.33;;
73264;SDS011;61493;51.008;14.088;2022-12-07T10:08:26;14.47;;;5.93;;
73264;SDS011;61493;51.008;14.088;2022-12-07T10:10:53;9.60;;;5.23;;
73264;SDS011;61493;51.008;14.088;2022-12-07T10:13:22;9.87;;;5.20;;
73264;SDS011;61493;51.008;14.088;2022-12-07T10:16:06;9.17;;;4.90;;
73264;SDS011;61493;51.008;14.088;2022-12-07T10:18:33;9.47;;;5.10;;
73264;SDS011;61493;51.008;14.088;2022-12-07T10:23:29;7.00;;;4.47;;
73264;SDS011;61493;51.008;14.088;2022-12-07T10:25:54;9.10;;;4.27;;
73264;SDS011;61493;51.008;14.088;2022-12-07T10:28:20;12.23;;;6.13;;
73264;SDS011;61493;51.008;14.088;2022-12-07T10:30:47;8.77;;;5.17;;
73264;SDS011;61493;51.008;14.088;2022-12-07T10:33:38;11.40;;;5.20;;
73264;SDS011;61493;51.008;14.088;2022-12-07T10:36:18;7.77;;;3.70;;
73264;SDS011;61493;51.008;14.088;2022-12-07T10:38:53;10.37;;;4.40;;
73264;SDS011;61493;51.008;14.088;2022-12-07T10:41:25;10.13;;;4.87;;
73264;SDS011;61493;51.008;14.088;2022-12-07T10:43:52;8.67;;;4.53;;
73264;SDS011;61493;51.008;14.088;2022-12-07T10:52:15;7.07;;;3.85;;
73264;SDS011;61493;51.008;14.088;2022-12-07T11:00:22;11.20;;;4.43;;
73264;SDS011;61493;51.008;14.088;2022-12-07T11:14:54;10.37;;;4.00;;
73264;SDS011;61493;51.008;14.088;2022-12-07T11:20:15;9.13;;;3.80;;
73264;SDS011;61493;51.008;14.088;2022-12-07T11:25:38;6.97;;;3.87;;
73264;SDS011;61493;51.008;14.088;2022-12-07T11:33:57;5.73;;;3.50;;
73264;SDS011;61493;51.008;14.088;2022-12-07T11:36:43;7.17;;;3.70;;
73264;SDS011;61493;51.008;14.088;2022-12-07T11:41:46;7.63;;;4.60;;
73264;SDS011;61493;51.008;14.088;2022-12-07T12:01:28;7.63;;;4.37;;
73264;SDS011;61493;51.008;14.088;2022-12-07T12:04:06;8.77;;;4.17;;
73264;SDS011;61493;51.008;14.088;2022-12-07T12:06:42;10.63;;;3.83;;
73264;SDS011;61493;51.008;14.088;2022-12-07T12:09:13;12.03;;;4.83;;
73264;SDS011;61493;51.008;14.088;2022-12-07T12:20:29;8.23;;;4.70;;
73264;SDS011;61493;51.008;14.088;2022-12-07T12:22:47;10.95;;;4.10;;
73264;SDS011;61493;51.008;14.088;2022-12-07T12:25:39;9.70;;;5.10;;
73264;SDS011;61493;51.008;14.088;2022-12-07T12:28:05;6.13;;;3.60;;
73264;SDS011;61493;51.008;14.088;2022-12-07T13:06:42;7.03;;;4.77;;
73264;SDS011;61493;51.008;14.088;2022-12-07T13:09:17;9.93;;;5.03;;
73264;SDS011;61493;51.008;14.088;2022-12-07T13:11:47;6.97;;;4.80;;
73264;SDS011;61493;51.008;14.088;2022-12-07T13:19:57;9.10;;;4.40;;
73264;SDS011;61493;51.008;14.088;2022-12-07T13:25:05;7.63;;;3.87;;
73264;SDS011;61493;51.008;14.088;2022-12-07T13:27:39;7.70;;;4.88;;
73264;SDS011;61493;51.008;14.088;2022-12-07T13:30:16;7.77;;;4.40;;
73264;SDS011;61493;51.008;14.088;2022-12-07T13:32:52;4.93;;;2.73;;
73264;SDS011;61493;51.008;14.088;2022-12-07T13:35:37;3.63;;;1.93;;
73264;SDS011;61493;51.008;14.088;2022-12-07T13:38:16;3.17;;;1.67;;
73264;SDS011;61493;51.008;14.088;2022-12-07T13:43:45;2.50;;;1.40;;
73264;SDS011;61493;51.008;14.088;2022-12-07T13:46:12;5.40;;;2.50;;
73264;SDS011;61493;51.008;14.088;2022-12-07T13:48:49;4.50;;;2.37;;
73264;SDS011;61493;51.008;14.088;2022-12-07T13:54:11;3.30;;;1.73;;
73264;SDS011;61493;51.008;14.088;2022-12-07T13:56:38;4.47;;;1.80;;
73264;SDS011;61493;51.008;14.088;2022-12-07T13:59:05;4.83;;;1.67;;
73264;SDS011;61493;51.008;14.088;2022-12-07T14:04:19;3.17;;;2.00;;
73264;SDS011;61493;51.008;14.088;2022-12-07T14:06:55;8.10;;;6.07;;
73264;SDS011;61493;51.008;14.088;2022-12-07T14:09:22;5.17;;;2.30;;
73264;SDS011;61493;51.008;14.088;2022-12-07T14:11:49;3.53;;;2.30;;
73264;SDS011;61493;51.008;14.088;2022-12-07T14:14:18;4.10;;;2.30;;
73264;SDS011;61493;51.008;14.088;2022-12-07T14:16:55;3.50;;;2.20;;
73264;SDS011;61493;51.008;14.088;2022-12-07T14:19:40;5.80;;;2.13;;
73264;SDS011;61493;51.008;14.088;2022-12-07T14:24:47;10.07;;;2.77;;
73264;SDS011;61493;51.008;14.088;2022-12-07T14:27:19;5.23;;;2.27;;
73264;SDS011;61493;51.008;14.088;2022-12-07T14:29:46;4.67;;;2.23;;
73264;SDS011;61493;51.008;14.088;2022-12-07T14:32:18;3.57;;;2.33;;
73264;SDS011;61493;51.008;14.088;2022-12-07T14:35:00;4.23;;;2.67;;
73264;SDS011;61493;51.008;14.088;2022-12-07T14:37:26;4.82;;;2.80;;
73264;SDS011;61493;51.008;14.088;2022-12-07T14:39:52;6.77;;;3.27;;
73264;SDS011;61493;51.008;14.088;2022-12-07T14:42:18;4.67;;;2.63;;
73264;SDS011;61493;51.008;14.088;2022-12-07T14:44:43;6.47;;;3.37;;
73264;SDS011;61493;51.008;14.088;2022-12-07T14:47:10;7.00;;;3.67;;
73264;SDS011;61493;51.008;14.088;2022-12-07T14:49:35;5.57;;;3.13;;
73264;SDS011;61493;51.008;14.088;2022-12-07T14:52:02;7.90;;;4.17;;
73264;SDS011;61493;51.008;14.088;2022-12-07T14:54:47;7.77;;;4.00;;
73264;SDS011;61493;51.008;14.088;2022-12-07T14:57:13;6.13;;;3.47;;
73264;SDS011;61493;51.008;14.088;2022-12-07T15:02:15;8.27;;;2.90;;
73264;SDS011;61493;51.008;14.088;2022-12-07T15:04:41;11.20;;;4.63;;
73264;SDS011;61493;51.008;14.088;2022-12-07T15:07:10;7.27;;;3.93;;
73264;SDS011;61493;51.008;14.088;2022-12-07T15:09:42;8.53;;;3.20;;
73264;SDS011;61493;51.008;14.088;2022-12-07T15:12:07;6.73;;;3.83;;
73264;SDS011;61493;51.008;14.088;2022-12-07T15:14:32;8.03;;;4.10;;
73264;SDS011;61493;51.008;14.088;2022-12-07T15:16:58;10.10;;;4.60;;
73264;SDS011;61493;51.008;14.088;2022-12-07T15:19:23;8.03;;;3.60;;
73264;SDS011;61493;51.008;14.088;2022-12-07T15:21:51;7.20;;;4.17;;
73264;SDS011;61493;51.008;14.088;2022-12-07T15:24:17;6.83;;;3.50;;
73264;SDS011;61493;51.008;14.088;2022-12-07T15:26:42;9.13;;;4.77;;
73264;SDS011;61493;51.008;14.088;2022-12-07T15:29:08;10.00;;;5.50;;
73264;SDS011;61493;51.008;14.088;2022-12-07T15:31:34;10.83;;;5.60;;
73264;SDS011;61493;51.008;14.088;2022-12-07T15:34:00;9.17;;;5.80;;
73264;SDS011;61493;51.008;14.088;2022-12-07T15:36:26;8.37;;;4.57;;
73264;SDS011;61493;51.008;14.088;2022-12-07T15:38:54;10.77;;;5.47;;
73264;SDS011;61493;51.008;14.088;2022-12-07T15:41:20;8.83;;;6.10;;
73264;SDS011;61493;51.008;14.088;2022-12-07T15:43:46;8.83;;;5.47;;
73264;SDS011;61493;51.008;14.088;2022-12-07T15:46:30;9.50;;;5.30;;
73264;SDS011;61493;51.008;14.088;2022-12-07T15:48:57;9.90;;;4.63;;
73264;SDS011;61493;51.008;14.088;2022-12-07T15:51:22;11.03;;;5.27;;
73264;SDS011;61493;51.008;14.088;2022-12-07T15:53:48;10.97;;;5.90;;
73264;SDS011;61493;51.008;14.088;2022-12-07T15:56:13;13.40;;;5.40;;
73264;SDS011;61493;51.008;14.088;2022-12-07T15:58:42;13.33;;;4.67;;
73264;SDS011;61493;51.008;14.088;2022-12-07T16:01:11;8.87;;;4.30;;
73264;SDS011;61493;51.008;14.088;2022-12-07T16:03:37;7.80;;;4.03;;
73264;SDS011;61493;51.008;14.088;2022-12-07T16:06:03;8.40;;;4.17;;
73264;SDS011;61493;51.008;14.088;2022-12-07T16:08:28;6.40;;;3.80;;
73264;SDS011;61493;51.008;14.088;2022-12-07T16:10:54;6.07;;;3.37;;
73264;SDS011;61493;51.008;14.088;2022-12-07T16:13:19;9.83;;;3.97;;
73264;SDS011;61493;51.008;14.088;2022-12-07T16:15:45;6.27;;;3.80;;
73264;SDS011;61493;51.008;14.088;2022-12-07T16:18:11;7.27;;;3.33;;
73264;SDS011;61493;51.008;14.088;2022-12-07T16:20:37;4.73;;;2.67;;
73264;SDS011;61493;51.008;14.088;2022-12-07T16:23:03;7.57;;;3.43;;
73264;SDS011;61493;51.008;14.088;2022-12-07T16:25:28;9.20;;;3.60;;
73264;SDS011;61493;51.008;14.088;2022-12-07T16:27:53;8.37;;;3.63;;
73264;SDS011;61493;51.008;14.088;2022-12-07T16:30:19;4.97;;;3.17;;
73264;SDS011;61493;51.008;14.088;2022-12-07T16:32:47;5.77;;;3.47;;
73264;SDS011;61493;51.008;14.088;2022-12-07T16:35:19;5.60;;;3.30;;
73264;SDS011;61493;51.008;14.088;2022-12-07T16:37:44;9.80;;;4.47;;
73264;SDS011;61493;51.008;14.088;2022-12-07T16:40:10;6.60;;;3.43;;
73264;SDS011;61493;51.008;14.088;2022-12-07T16:42:36;9.60;;;4.43;;
73264;SDS011;61493;51.008;14.088;2022-12-07T16:45:01;9.03;;;4.17;;
73264;SDS011;61493;51.008;14.088;2022-12-07T16:47:27;10.50;;;4.70;;
73264;SDS011;61493;51.008;14.088;2022-12-07T16:49:53;8.37;;;4.90;;
73264;SDS011;61493;51.008;14.088;2022-12-07T16:52:19;10.40;;;4.93;;
73264;SDS011;61493;51.008;14.088;2022-12-07T16:54:45;7.30;;;4.10;;
73264;SDS011;61493;51.008;14.088;2022-12-07T16:57:10;9.40;;;4.87;;
73264;SDS011;61493;51.008;14.088;2022-12-07T16:59:36;9.77;;;4.47;;
73264;SDS011;61493;51.008;14.088;2022-12-07T17:02:01;17.33;;;5.90;;
73264;SDS011;61493;51.008;14.088;2022-12-07T17:04:27;14.90;;;6.40;;
73264;SDS011;61493;51.008;14.088;2022-12-07T17:06:53;11.30;;;5.07;;
73264;SDS011;61493;51.008;14.088;2022-12-07T17:09:18;7.60;;;4.17;;
73264;SDS011;61493;51.008;14.088;2022-12-07T17:11:44;6.70;;;3.53;;
73264;SDS011;61493;51.008;14.088;2022-12-07T17:14:10;5.93;;;3.50;;
73264;SDS011;61493;51.008;14.088;2022-12-07T17:16:54;7.83;;;3.60;;
73264;SDS011;61493;51.008;14.088;2022-12-07T17:19:20;6.17;;;3.60;;
73264;SDS011;61493;51.008;14.088;2022-12-07T17:21:45;4.60;;;2.23;;
73264;SDS011;61493;51.008;14.088;2022-12-07T17:24:40;7.17;;;3.47;;